Time;durP1;ratioP1;P1;durP2;ratioP2;P2;SDS_P1;SDS_P2;PMS_P1;PMS_P2;Temp;Humidity;BMP_temperature;BMP_pressure;BME280_temperature;BME280_humidity;BME280_pressure;Samples;Min_cycle;Max_cycle;Signal;HPM_P1;HPM_P2
2022/06/23 00:00:03;;;;;;;30.62;13.53;;;;;;;10.85;74.49;94227.53;1697532;84;21598;-49
2022/06/23 00:02:34;;;;;;;34.80;13.50;;;;;;;10.77;74.98;94220.82;1701800;82;21134;-49
2022/06/23 00:05:06;;;;;;;25.30;12.35;;;;;;;10.71;75.00;94221.89;1718382;83;21507;-49
2022/06/23 00:07:35;;;;;;;24.37;10.78;;;;;;;10.64;75.06;94222.19;1718719;83;20971;-49
2022/06/23 00:10:13;;;;;;;25.72;10.53;;;;;;;10.58;75.20;94229.54;1717269;83;21463;-50
2022/06/23 00:12:42;;;;;;;19.02;9.18;;;;;;;10.56;75.35;94233.36;1709263;83;21003;-50
2022/06/23 00:15:27;;;;;;;19.62;8.58;;;;;;;10.56;75.81;94229.23;1709648;84;21484;-49
2022/06/23 00:18:02;;;;;;;16.50;7.72;;;;;;;10.60;75.74;94236.12;1709875;84;20955;-50
2022/06/23 00:20:50;;;;;;;18.95;8.63;;;;;;;10.64;75.82;94243.59;1709770;84;21019;-50
2022/06/23 00:23:26;;;;;;;21.23;8.45;;;;;;;10.67;75.66;94244.65;1709958;84;21045;-49
2022/06/23 00:26:06;;;;;;;18.07;7.70;;;;;;;10.68;75.52;94239.33;1707304;84;20959;-49
2022/06/23 00:28:45;;;;;;;15.72;8.55;;;;;;;10.64;75.10;94246.34;1709919;84;21838;-49
2022/06/23 00:31:30;;;;;;;16.20;9.30;;;;;;;10.57;75.14;94247.27;1709635;84;21113;-49
2022/06/23 00:33:59;;;;;;;15.30;8.55;;;;;;;10.53;75.53;94250.16;1709150;83;21566;-49
2022/06/23 00:36:43;;;;;;;20.10;8.33;;;;;;;10.52;75.42;94251.38;1715872;83;21424;-49
2022/06/23 00:39:33;;;;;;;18.77;8.38;;;;;;;10.47;75.66;94249.84;1660189;85;21080;-51
2022/06/23 00:42:08;;;;;;;18.62;8.88;;;;;;;10.45;75.80;94239.92;1700687;83;21792;-51
2022/06/23 00:44:46;;;;;;;28.73;12.58;;;;;;;10.45;75.73;94244.05;1705537;83;21001;-51
2022/06/23 00:47:18;;;;;;;28.80;12.95;;;;;;;10.44;75.76;94250.77;1668929;83;20967;-49
2022/06/23 00:49:51;;;;;;;30.85;13.93;;;;;;;10.42;75.97;94237.49;1648820;87;21027;-50
2022/06/23 00:52:35;;;;;;;14.50;8.08;;;;;;;10.41;76.35;94235.19;1648750;86;21084;-49
2022/06/23 00:55:25;;;;;;;16.90;8.50;;;;;;;10.43;76.51;94236.87;1658463;85;21245;-50
2022/06/23 00:57:58;;;;;;;21.07;9.60;;;;;;;10.40;76.27;94237.19;1648467;86;20999;-50
2022/06/23 01:00:33;;;;;;;17.80;8.58;;;;;;;10.39;76.60;94243.14;1658440;85;20984;-49
2022/06/23 01:03:09;;;;;;;13.68;7.60;;;;;;;10.36;76.52;94239.93;1648538;86;21010;-50
2022/06/23 01:05:57;;;;;;;14.15;6.92;;;;;;;10.36;76.38;94240.68;1675040;85;21438;-50
2022/06/23 01:08:33;;;;;;;15.23;6.95;;;;;;;10.37;76.01;94231.84;1645050;84;21872;-49
2022/06/23 01:11:12;;;;;;;11.83;6.58;;;;;;;10.35;76.20;94231.53;1676486;85;21018;-51
2022/06/23 01:13:45;;;;;;;16.85;7.28;;;;;;;10.34;76.08;94235.50;1688907;84;21008;-50
2022/06/23 01:16:21;;;;;;;11.70;6.40;;;;;;;10.33;76.22;94229.85;1676242;85;21498;-51
2022/06/23 01:19:45;;;;;;;10.75;6.85;;;;;;;10.34;76.06;94214.26;1686522;85;20960;-51
2022/06/23 01:22:37;;;;;;;8.43;5.22;;;;;;;10.32;75.88;94217.33;1676311;85;21339;-50
2022/06/23 01:25:45;;;;;;;9.55;5.72;;;;;;;10.30;76.29;94215.63;1677020;85;21417;-50
2022/06/23 01:28:25;;;;;;;10.08;6.03;;;;;;;10.29;76.63;94210.75;1676476;85;20967;-50
2022/06/23 01:31:13;;;;;;;11.45;6.45;;;;;;;10.22;76.43;94215.19;1689319;85;21000;-50
2022/06/23 01:34:03;;;;;;;13.22;6.20;;;;;;;10.15;76.20;94216.84;1676299;85;21022;-50
2022/06/23 01:36:43;;;;;;;15.85;6.83;;;;;;;10.03;76.26;94219.73;1689428;85;21032;-49
2022/06/23 01:39:31;;;;;;;13.45;6.50;;;;;;;9.96;76.76;94220.02;1676286;84;21050;-49
2022/06/23 01:42:16;;;;;;;13.93;6.62;;;;;;;9.95;77.04;94223.35;1617121;84;21070;-51
2022/06/23 01:44:51;;;;;;;10.35;5.83;;;;;;;9.98;77.38;94227.94;1676498;85;20970;-52
2022/06/23 01:47:29;;;;;;;9.68;6.33;;;;;;;10.00;77.33;94229.61;1689547;85;21120;-49
2022/06/23 01:50:14;;;;;;;10.53;5.05;;;;;;;10.00;77.13;94235.73;1676222;84;21438;-49
2022/06/23 01:52:44;;;;;;;5.90;4.65;;;;;;;9.96;77.01;94233.13;1688955;85;21004;-49
2022/06/23 01:55:24;;;;;;;9.98;5.17;;;;;;;9.87;77.37;94237.84;1676379;85;20998;-50
2022/06/23 01:58:00;;;;;;;7.90;5.05;;;;;;;9.80;77.53;94235.39;1689463;85;21561;-49
2022/06/23 02:00:28;;;;;;;10.68;5.40;;;;;;;9.74;77.58;94232.47;1676367;85;21006;-48
2022/06/23 02:03:18;;;;;;;7.40;5.60;;;;;;;9.64;77.68;94232.27;1689578;85;21795;-50
2022/06/23 02:05:57;;;;;;;9.35;5.25;;;;;;;9.62;78.27;94238.08;1676225;85;21003;-50
2022/06/23 02:08:49;;;;;;;14.33;7.10;;;;;;;9.60;78.63;94235.02;1688959;83;20972;-49
2022/06/23 02:11:34;;;;;;;11.55;6.65;;;;;;;9.58;79.06;94230.59;1676431;84;21491;-50
2022/06/23 02:14:44;;;;;;;19.35;5.85;;;;;;;9.54;79.33;94247.20;1689359;85;21472;-49
2022/06/23 02:17:35;;;;;;;11.10;6.35;;;;;;;9.52;79.42;94243.38;1676434;85;21430;-50
2022/06/23 02:20:14;;;;;;;9.60;5.35;;;;;;;9.50;79.17;94251.30;1689093;85;21424;-50
2022/06/23 02:22:45;;;;;;;7.90;5.37;;;;;;;9.47;79.41;94245.34;1673289;85;21062;-49
2022/06/23 02:25:29;;;;;;;7.92;5.50;;;;;;;9.50;79.28;94254.05;1689305;85;21052;-51
2022/06/23 02:28:12;;;;;;;7.67;5.00;;;;;;;9.51;79.11;94256.95;1676500;85;20991;-50
2022/06/23 02:30:44;;;;;;;6.92;4.92;;;;;;;9.54;79.00;94254.66;1689633;85;21242;-49
2022/06/23 02:33:40;;;;;;;10.38;4.72;;;;;;;9.56;78.85;94256.34;1675289;85;21058;-50
2022/06/23 02:36:29;;;;;;;7.08;4.95;;;;;;;9.60;78.84;94256.99;1689126;84;21094;-50
2022/06/23 02:38:59;;;;;;;15.48;7.17;;;;;;;9.66;79.09;94264.78;1656744;85;21439;-50
2022/06/23 02:41:40;;;;;;;11.65;7.17;;;;;;;9.72;78.93;94262.97;1689420;85;20977;-50
2022/06/23 02:44:25;;;;;;;28.17;10.68;;;;;;;9.69;79.08;94268.00;1676369;85;21138;-48
2022/06/23 02:47:10;;;;;;;27.95;12.20;;;;;;;9.66;79.33;94264.78;1688820;84;20992;-49
2022/06/23 02:50:04;;;;;;;38.08;16.02;;;;;;;9.66;79.22;94264.16;1676298;85;21442;-49
2022/06/23 02:52:40;;;;;;;35.78;15.68;;;;;;;9.69;79.28;94262.50;1688801;84;21016;-50
2022/06/23 02:55:22;;;;;;;31.15;13.95;;;;;;;9.72;79.14;94268.46;1676228;85;20999;-49
2022/06/23 02:58:16;;;;;;;21.70;10.37;;;;;;;9.73;78.90;94267.24;1689953;85;21133;-49
2022/06/23 03:00:53;;;;;;;22.80;9.23;;;;;;;9.59;78.70;94276.06;1676132;85;21215;-49
2022/06/23 03:03:42;;;;;;;18.77;8.90;;;;;;;9.45;79.23;94285.59;1668043;85;21022;-49
2022/06/23 03:06:35;;;;;;;18.40;9.58;;;;;;;9.43;79.61;94279.04;1668179;85;21054;-49
2022/06/23 03:09:10;;;;;;;26.02;11.15;;;;;;;9.52;79.91;94283.96;1680710;84;21046;-50
2022/06/23 03:11:58;;;;;;;23.67;10.68;;;;;;;9.61;80.00;94287.36;1737946;82;20985;-50
2022/06/23 03:14:48;;;;;;;20.02;10.55;;;;;;;9.68;79.58;94306.30;1748145;82;20967;-50
2022/06/23 03:17:38;;;;;;;18.60;9.28;;;;;;;9.70;79.38;94301.11;1748036;82;20951;-49
2022/06/23 03:20:22;;;;;;;23.27;9.93;;;;;;;9.68;79.28;94291.19;1748366;81;20958;-50
2022/06/23 03:23:01;;;;;;;15.32;8.53;;;;;;;9.68;79.51;94278.83;1748137;81;21538;-50
2022/06/23 03:25:57;;;;;;;21.62;10.08;;;;;;;9.75;79.43;94286.77;1748523;81;21534;-50
2022/06/23 03:28:53;;;;;;;22.25;10.45;;;;;;;9.78;79.36;94290.02;1748061;81;20943;-48
2022/06/23 03:31:44;;;;;;;20.15;10.78;;;;;;;9.85;79.28;94293.84;1748117;81;21554;-49
2022/06/23 03:34:32;;;;;;;23.25;9.73;;;;;;;9.88;79.21;94295.68;1748534;82;21007;-49
2022/06/23 03:37:06;;;;;;;18.85;9.05;;;;;;;9.93;79.03;94302.73;1748450;81;21062;-50
2022/06/23 03:42:36;;;;;;;14.80;9.75;;;;;;;10.08;79.05;94298.82;1748515;82;21058;-50
2022/06/23 03:45:18;;;;;;;14.43;7.78;;;;;;;10.17;78.71;94291.98;1747628;81;20987;-50
2022/06/23 03:48:23;;;;;;;20.40;9.38;;;;;;;10.17;78.59;94287.23;1748530;82;20961;-49
2022/06/23 03:50:57;;;;;;;18.62;8.05;;;;;;;10.19;78.70;94293.66;1748068;81;21479;-50
2022/06/23 03:53:32;;;;;;;14.28;7.22;;;;;;;10.26;78.71;94291.98;1718304;83;21071;-49
2022/06/23 03:56:03;;;;;;;12.35;6.50;;;;;;;10.30;78.55;94290.63;1740189;82;21026;-49
2022/06/23 03:58:36;;;;;;;10.63;7.97;;;;;;;10.37;78.41;94288.95;1718098;83;21050;-50
2022/06/23 04:01:15;;;;;;;14.10;7.83;;;;;;;10.48;78.45;94291.25;1744418;82;21018;-50
2022/06/23 04:04:05;;;;;;;14.73;7.40;;;;;;;10.62;78.35;94293.41;1740470;82;21412;-50
2022/06/23 04:06:40;;;;;;;9.80;6.12;;;;;;;10.78;78.02;94296.64;1695439;83;21136;-50
2022/06/23 04:09:24;;;;;;;11.25;6.05;;;;;;;10.89;77.39;94296.32;1739857;82;20963;-50
2022/06/23 04:12:01;;;;;;;6.40;5.62;;;;;;;10.95;76.77;94286.84;1685736;85;21030;-50
2022/06/23 04:14:54;;;;;;;6.75;4.58;;;;;;;11.01;76.50;94296.00;1685760;84;21026;-50
2022/06/23 04:17:27;;;;;;;5.37;4.72;;;;;;;11.11;76.28;94295.53;1685568;85;21026;-49
2022/06/23 04:20:03;;;;;;;6.08;4.90;;;;;;;11.26;76.14;94300.56;1665555;85;21266;-50
2022/06/23 04:22:59;;;;;;;6.90;5.40;;;;;;;11.47;75.54;94303.72;1725712;83;21007;-50
2022/06/23 04:25:49;;;;;;;7.05;5.17;;;;;;;11.72;74.92;94296.47;1726551;83;20959;-52
2022/06/23 04:28:23;;;;;;;10.40;5.12;;;;;;;11.93;74.08;94289.95;1724985;83;21452;-53
2022/06/23 04:30:50;;;;;;;;;;;;;;;12.09;73.57;94301.97;1688265;85;21530;-48
2022/06/23 04:33:23;;;;;;;10.85;5.03;;;;;;;12.27;73.39;94299.12;1719456;83;21167;-49
2022/06/23 04:35:52;;;;;;;;;;;;;;;12.46;72.74;94294.27;1687854;85;21011;-50
2022/06/23 04:38:28;;;;;;;6.67;4.30;;;;;;;12.64;72.15;94300.41;1719531;83;20151;-49
2022/06/23 04:41:22;;;;;;;7.72;4.20;;;;;;;12.80;71.79;94298.61;1685425;85;21093;-48
2022/06/23 04:43:57;;;;;;;4.80;3.40;;;;;;;12.99;71.42;94302.78;1647460;85;21038;-48
2022/06/23 04:46:58;;;;;;;7.05;4.90;;;;;;;13.20;70.78;94288.64;1685516;85;21208;-51
2022/06/23 04:49:34;;;;;;;9.58;5.00;;;;;;;13.39;70.29;94294.13;1726412;83;20969;-50
2022/06/23 04:52:34;;;;;;;6.42;4.47;;;;;;;13.58;69.62;94302.38;1726329;83;21051;-49
2022/06/23 04:55:24;;;;;;;9.78;5.53;;;;;;;13.73;68.72;94308.67;1723423;83;21506;-49
2022/06/23 04:57:56;;;;;;;13.45;5.17;;;;;;;13.80;68.08;94306.89;1705790;83;21030;-49
2022/06/23 05:00:27;;;;;;;6.80;4.75;;;;;;;13.88;67.60;94307.27;1714087;83;21174;-50
2022/06/23 05:03:02;;;;;;;8.40;4.58;;;;;;;13.96;67.34;94311.18;1705691;83;20964;-50
2022/06/23 05:05:34;;;;;;;7.80;4.92;;;;;;;14.06;67.32;94307.05;1726389;83;20995;-50
2022/06/23 05:08:24;;;;;;;9.13;4.05;;;;;;;14.22;66.95;94306.57;1685587;85;21015;-51
2022/06/23 05:11:15;;;;;;;6.00;3.98;;;;;;;14.37;66.42;94310.81;1725255;83;21011;-49
2022/06/23 05:13:53;;;;;;;6.45;4.00;;;;;;;14.50;65.86;94298.80;1686525;85;21159;-49
2022/06/23 05:16:30;;;;;;;7.62;4.37;;;;;;;14.56;65.67;94303.78;1696313;84;21055;-53
2022/06/23 05:19:00;;;;;;;6.00;3.98;;;;;;;14.62;65.76;94305.38;1685296;84;21454;-50
2022/06/23 05:21:31;;;;;;;5.15;3.98;;;;;;;14.77;65.94;94297.00;1685265;85;21047;-49
2022/06/23 05:24:06;;;;;;;9.08;3.75;;;;;;;14.94;65.36;94307.06;1686266;85;21043;-49
2022/06/23 05:26:45;;;;;;;7.45;3.67;;;;;;;15.05;65.06;94305.81;1686519;85;21229;-49
2022/06/23 05:29:33;;;;;;;4.45;3.70;;;;;;;15.18;65.42;94314.52;1689276;83;21517;-50
2022/06/23 05:32:08;;;;;;;7.80;4.17;;;;;;;15.25;64.66;94303.02;1703612;83;21152;-50
2022/06/23 05:34:42;;;;;;;3.67;3.30;;;;;;;15.36;64.27;94307.95;1693120;83;21073;-50
2022/06/23 05:37:26;;;;;;;4.87;3.87;;;;;;;15.45;64.08;94313.32;1683950;82;21093;-51
2022/06/23 05:40:19;;;;;;;4.53;3.58;;;;;;;15.48;64.15;94312.34;1699754;84;21863;-51
2022/06/23 05:42:49;;;;;;;4.45;3.60;;;;;;;15.56;63.97;94304.48;1657599;86;20987;-50
2022/06/23 05:45:23;;;;;;;4.83;3.50;;;;;;;15.74;63.75;94308.31;1691979;83;21518;-52
2022/06/23 05:47:51;;;;;;;8.03;3.50;;;;;;;15.87;63.61;94300.37;1681215;83;21060;-50
2022/06/23 05:50:23;;;;;;;7.62;6.75;;;;;;;15.98;62.62;94299.08;1702380;81;21685;-51
2022/06/23 05:53:02;;;;;;;8.13;4.45;;;;;;;16.05;62.14;94302.79;1718901;83;21131;-53
2022/06/23 05:55:56;;;;;;;6.62;3.98;;;;;;;16.12;62.00;94300.19;1699530;83;20966;-54
2022/06/23 05:58:47;;;;;;;5.10;4.12;;;;;;;16.16;61.68;94302.89;1624811;84;21020;-52
2022/06/23 06:01:36;;;;;;;5.33;4.17;;;;;;;16.19;61.47;94311.61;1679772;83;21039;-50
2022/06/23 06:04:44;;;;;;;6.95;4.55;;;;;;;16.24;61.13;94311.52;1670304;83;21231;-53
2022/06/23 06:07:18;;;;;;;11.40;4.30;;;;;;;16.23;60.72;94306.58;1686903;82;21082;-53
2022/06/23 06:09:46;;;;;;;6.83;3.67;;;;;;;16.28;61.47;94309.41;1651167;85;21066;-57
2022/06/23 06:12:30;;;;;;;12.37;7.28;;;;;;;16.35;61.56;94317.94;1676841;83;21011;-53
2022/06/23 06:15:07;;;;;;;7.30;5.55;;;;;;;16.40;61.38;94315.82;1710491;81;21094;-52
2022/06/23 06:17:37;;;;;;;13.55;5.62;;;;;;;16.45;61.11;94312.31;1698653;83;21605;-53
2022/06/23 06:20:07;;;;;;;12.37;5.00;;;;;;;16.44;60.76;94309.41;1700521;83;21118;-55
2022/06/23 06:23:04;;;;;;;8.43;4.37;;;;;;;16.45;60.93;94303.38;1699197;83;21015;-51
2022/06/23 06:25:37;;;;;;;11.75;4.83;;;;;;;16.53;60.53;94304.42;1710781;82;21084;-56
2022/06/23 06:28:20;;;;;;;7.63;4.53;;;;;;;16.62;60.30;94310.41;1662121;84;21122;-50
2022/06/23 06:31:22;;;;;;;11.83;5.42;;;;;;;16.69;60.72;94309.95;1695426;82;21811;-51
2022/06/23 06:34:01;;;;;;;6.62;4.10;;;;;;;16.74;60.96;94303.02;1618918;85;21989;-52
2022/06/23 06:36:44;;;;;;;8.18;5.17;;;;;;;16.87;59.91;94303.98;1653224;84;20913;-50
2022/06/23 06:39:28;;;;;;;3.90;3.45;;;;;;;17.03;58.59;94298.49;1648479;84;21136;-53
2022/06/23 06:42:32;;;;;;;4.00;3.45;;;;;;;17.27;57.42;94305.03;1675414;83;21073;-54
2022/06/23 06:45:06;;;;;;;2.40;2.20;;;;;;;17.46;56.61;94318.00;1684234;83;21099;-52
2022/06/23 06:47:36;;;;;;;2.62;2.42;;;;;;;17.64;54.26;94300.09;1655647;83;21314;-54
2022/06/23 06:50:35;;;;;;;4.08;2.55;;;;;;;17.78;52.67;94318.57;1689435;83;21626;-50
2022/06/23 06:53:07;;;;;;;3.52;2.55;;;;;;;17.90;52.09;94306.97;1652693;84;21045;-50
2022/06/23 06:55:42;;;;;;;6.55;2.80;;;;;;;18.09;53.31;94319.75;1688914;83;21174;-52
2022/06/23 06:58:43;;;;;;;2.60;2.40;;;;;;;18.23;52.68;94320.27;1686352;83;21080;-49
2022/06/23 07:01:23;;;;;;;7.95;2.90;;;;;;;18.40;51.37;94326.62;1690819;83;21189;-56
2022/06/23 07:03:52;;;;;;;3.33;2.33;;;;;;;18.59;50.17;94326.22;1686572;83;21525;-54
2022/06/23 07:06:36;;;;;;;6.42;2.25;;;;;;;18.72;49.11;94325.06;1678209;83;21065;-55
2022/06/23 07:09:54;;;;;;;4.37;2.62;;;;;;;18.86;49.28;94326.05;1679249;84;21111;-54
2022/06/23 07:12:48;;;;;;;2.70;2.40;;;;;;;19.04;49.13;94335.25;1677544;84;21053;-56
2022/06/23 07:15:24;;;;;;;7.47;2.20;;;;;;;19.18;48.60;94332.18;1681365;83;21208;-54
2022/06/23 07:17:55;;;;;;;4.95;2.12;;;;;;;19.19;48.35;94335.09;1673494;84;21541;-53
2022/06/23 07:20:52;;;;;;;12.10;3.10;;;;;;;19.12;47.78;94337.00;1682613;84;21050;-54
2022/06/23 07:23:50;;;;;;;5.15;2.27;;;;;;;19.07;48.38;94343.98;1675637;84;21086;-59
2022/06/23 07:26:31;;;;;;;2.33;2.12;;;;;;;19.03;49.34;94350.47;1677144;83;21069;-57
2022/06/23 07:29:21;;;;;;;2.22;1.95;;;;;;;19.05;48.56;94350.05;1680721;83;21097;-61
2022/06/23 07:32:14;;;;;;;2.37;2.08;;;;;;;19.08;49.21;94351.07;1680311;83;21055;-52
2022/06/23 07:34:46;;;;;;;4.67;2.40;;;;;;;19.12;48.50;94355.13;1657962;85;21572;-55
2022/06/23 07:37:22;;;;;;;6.33;5.17;;;;;;;19.08;48.69;94357.42;1678887;84;21077;-52
2022/06/23 07:39:53;;;;;;;4.22;3.10;;;;;;;19.08;49.45;94365.02;1678698;84;21144;-57
2022/06/23 07:42:52;;;;;;;3.92;2.70;;;;;;;19.10;49.46;94360.45;1682148;84;21118;-55
2022/06/23 07:45:40;;;;;;;5.90;2.70;;;;;;;19.10;50.48;94370.22;1676296;83;21109;-58
2022/06/23 07:48:08;;;;;;;4.60;2.42;;;;;;;19.11;50.17;94373.75;1653717;85;21105;-56
2022/06/23 07:50:36;;;;;;;4.72;2.90;;;;;;;19.30;50.14;94371.33;1663943;83;21122;-57
2022/06/23 07:53:03;;;;;;;3.90;2.40;;;;;;;19.59;49.91;94369.29;1659108;84;21059;-54
2022/06/23 07:55:36;;;;;;;2.90;1.92;;;;;;;19.84;48.35;94375.16;1660725;85;21255;-57
2022/06/23 07:58:06;;;;;;;2.10;1.80;;;;;;;19.92;47.81;94376.77;1678527;83;21081;-55
2022/06/23 08:00:37;;;;;;;3.10;2.45;;;;;;;19.85;46.87;94375.27;1657235;84;21489;-53
2022/06/23 08:03:14;;;;;;;6.25;3.08;;;;;;;19.75;47.69;94382.42;1679384;84;21154;-57
2022/06/23 08:05:52;;;;;;;7.90;3.62;;;;;;;19.69;47.62;94383.71;1670341;84;21132;-57
2022/06/23 08:08:27;;;;;;;7.75;3.60;;;;;;;19.88;48.50;94378.42;1669735;85;21131;-53
2022/06/23 08:13:45;;;;;;;2.83;1.80;;;;;;;20.65;45.83;94373.72;1693834;82;21046;-55
2022/06/23 08:19:17;;;;;;;2.83;1.77;;;;;;;21.07;44.01;94367.53;1653284;84;21084;-56
2022/06/23 08:21:51;;;;;;;6.47;2.05;;;;;;;21.08;42.99;94362.05;1651549;84;21288;-55
2022/06/23 08:24:23;;;;;;;5.05;1.92;;;;;;;20.90;41.82;94371.13;1700226;82;21057;-54
2022/06/23 08:27:01;;;;;;;3.42;2.42;;;;;;;20.78;41.84;94373.22;1671733;83;21549;-52
2022/06/23 08:29:34;;;;;;;3.33;2.47;;;;;;;20.71;42.07;94376.59;1704432;82;21058;-53
2022/06/23 08:32:02;;;;;;;5.30;1.90;;;;;;;20.69;41.57;94375.59;1713175;82;21126;-51
2022/06/23 08:34:31;;;;;;;2.15;1.62;;;;;;;20.72;41.69;94368.98;1714225;82;21266;-54
2022/06/23 08:37:04;;;;;;;2.80;1.98;;;;;;;20.78;41.78;94369.02;1708091;82;21131;-53
2022/06/23 08:39:38;;;;;;;8.18;1.87;;;;;;;20.90;42.25;94368.33;1716904;82;22230;-53
2022/06/23 08:42:19;;;;;;;2.00;1.67;;;;;;;21.17;41.81;94367.28;1681218;83;21054;-55
2022/06/23 08:45:18;;;;;;;1.52;1.40;;;;;;;21.47;40.33;94379.91;1685078;83;20979;-54
2022/06/23 08:47:56;;;;;;;2.37;1.60;;;;;;;21.72;39.50;94376.47;1670660;83;21196;-54
2022/06/23 08:50:35;;;;;;;4.72;2.30;;;;;;;21.87;39.08;94381.73;1680964;83;21140;-52
2022/06/23 08:53:22;;;;;;;7.10;1.92;;;;;;;21.78;39.52;94376.52;1671680;83;21068;-52
2022/06/23 08:56:04;;;;;;;4.28;1.92;;;;;;;21.64;38.75;94380.51;1658972;85;21157;-52
2022/06/23 08:58:42;;;;;;;1.60;1.50;;;;;;;21.60;39.48;94387.66;1689480;83;21098;-58
2022/06/23 09:01:18;;;;;;;1.98;1.82;;;;;;;21.59;39.11;94388.94;1692323;83;21176;-54
2022/06/23 09:03:53;;;;;;;1.85;1.55;;;;;;;21.62;39.41;94385.11;1688444;83;21040;-52
2022/06/23 09:06:35;;;;;;;3.17;1.80;;;;;;;21.72;40.98;94394.05;1695832;83;21053;-53
2022/06/23 09:09:50;;;;;;;4.97;2.93;;;;;;;21.88;39.70;94390.91;1660152;84;21341;-54
2022/06/23 09:12:35;;;;;;;2.10;1.90;;;;;;;21.90;39.22;94396.74;1676359;83;21569;-52
2022/06/23 09:15:32;;;;;;;2.20;1.70;;;;;;;21.83;39.08;94394.55;1722368;82;21286;-53
2022/06/23 09:18:15;;;;;;;1.87;1.75;;;;;;;21.76;38.68;94385.33;1732063;81;21024;-51
2022/06/23 09:20:57;;;;;;;2.30;1.70;;;;;;;;;;1723441;81;21022;-54
2022/06/23 09:24:06;;;;;;;2.10;2.00;;;;;;;22.06;39.14;94382.50;1723302;81;21046;-51
2022/06/23 09:26:59;;;;;;;8.28;2.17;;;;;;;22.09;38.16;94385.01;1724532;82;21069;-55
2022/06/23 09:30:00;;;;;;;3.05;1.70;;;;;;;22.06;39.22;94379.70;1695867;83;21102;-51
2022/06/23 09:32:57;;;;;;;6.40;2.20;;;;;;;22.04;39.38;94374.64;1710038;81;21091;-51
2022/06/23 09:35:58;;;;;;;2.20;1.80;;;;;;;22.09;39.41;94372.40;1720326;82;21607;-51
2022/06/23 09:39:04;;;;;;;5.55;4.15;;;;;;;22.25;38.55;94375.61;1711257;81;21115;-53
2022/06/23 09:41:51;;;;;;;2.00;1.77;;;;;;;22.50;38.70;94379.10;1715709;81;21107;-51
2022/06/23 09:45:09;;;;;;;8.70;5.92;;;;;;;22.72;35.63;94381.55;1676970;81;21264;-56
2022/06/23 09:48:11;;;;;;;2.95;2.10;;;;;;;22.85;35.31;94382.34;1721991;81;21047;-52
2022/06/23 09:51:22;;;;;;;4.37;1.67;;;;;;;22.99;35.88;94376.87;1717113;82;21047;-52
2022/06/23 09:54:38;;;;;;;4.60;1.60;;;;;;;23.05;35.06;94380.33;1729952;81;21038;-51
2022/06/23 09:57:34;;;;;;;7.37;1.75;;;;;;;23.03;35.19;94389.94;1715653;81;21073;-52
2022/06/23 10:00:10;;;;;;;1.50;1.30;;;;;;;23.08;34.46;94384.89;1709993;81;21871;-52
2022/06/23 10:03:04;;;;;;;3.52;1.60;;;;;;;23.15;33.94;94383.51;1711440;81;21029;-55
2022/06/23 10:05:59;;;;;;;3.00;2.65;;;;;;;23.10;34.14;94387.92;1688229;83;21117;-53
2022/06/23 10:08:50;;;;;;;9.00;2.60;;;;;;;23.17;35.36;94388.70;1691014;83;21053;-54
2022/06/23 10:11:42;;;;;;;3.30;1.90;;;;;;;23.26;32.56;94384.72;1672803;84;21049;-52
2022/06/23 10:14:20;;;;;;;1.90;1.27;;;;;;;23.26;33.84;94382.69;1670178;85;22429;-53
2022/06/23 10:17:10;;;;;;;6.08;3.12;;;;;;;23.46;34.85;94382.05;1675921;85;21073;-56
2022/06/23 10:19:43;;;;;;;3.25;1.98;;;;;;;23.68;34.25;94383.65;1680177;85;21042;-52
2022/06/23 10:22:23;;;;;;;6.22;1.57;;;;;;;23.82;32.60;94387.97;1670070;85;21030;-53
2022/06/23 10:25:20;;;;;;;2.27;1.75;;;;;;;23.94;31.57;94392.11;1670505;85;21058;-50
2022/06/23 10:28:11;;;;;;;2.65;1.52;;;;;;;23.99;32.88;94397.62;1676581;84;21650;-54
2022/06/23 10:31:08;;;;;;;3.85;1.40;;;;;;;24.14;33.23;94384.50;1674648;84;21058;-58
2022/06/23 10:33:46;;;;;;;1.52;1.42;;;;;;;24.37;30.46;94390.39;1658604;86;21078;-55
2022/06/23 10:36:46;;;;;;;1.40;1.30;;;;;;;24.48;30.99;94387.31;1658583;85;21090;-50
2022/06/23 10:39:38;;;;;;;1.75;1.50;;;;;;;24.65;33.18;94380.68;1657922;85;21071;-53
2022/06/23 10:42:30;;;;;;;1.60;1.40;;;;;;;25.05;34.13;94377.77;1658987;85;21214;-52
2022/06/23 10:45:15;;;;;;;2.52;1.32;;;;;;;25.51;31.41;94377.59;1660967;85;21045;-53
2022/06/23 10:48:09;;;;;;;1.27;1.15;;;;;;;25.70;30.19;94383.73;1644386;86;21006;-52
2022/06/23 10:51:03;;;;;;;2.05;1.80;;;;;;;25.47;29.79;94394.09;1660023;86;21061;-50
2022/06/23 10:54:17;;;;;;;2.83;1.27;;;;;;;25.05;31.34;94396.84;1659535;85;21077;-53
2022/06/23 10:57:14;;;;;;;2.15;1.55;;;;;;;25.15;32.48;94404.89;1664141;84;21342;-55
2022/06/23 11:00:14;;;;;;;2.77;1.37;;;;;;;25.49;31.79;94398.52;1645519;85;21433;-51
2022/06/23 11:03:05;;;;;;;3.10;1.12;;;;;;;25.89;32.56;94401.16;1669740;85;21877;-49
2022/06/23 11:06:03;;;;;;;2.22;2.02;;;;;;;26.29;30.33;94400.91;1590611;86;21202;-55
2022/06/23 11:09:07;;;;;;;1.62;1.25;;;;;;;26.43;28.44;94397.39;1668745;85;21047;-51
2022/06/23 11:11:48;;;;;;;7.65;1.52;;;;;;;26.41;27.23;94392.96;1678236;82;21216;-52
2022/06/23 11:14:35;;;;;;;2.15;0.93;;;;;;;26.61;27.18;94397.76;1700857;83;21244;-50
2022/06/23 11:17:17;;;;;;;1.35;1.17;;;;;;;26.82;25.88;94406.84;1714860;82;21474;-50
2022/06/23 11:20:27;;;;;;;1.10;1.00;;;;;;;26.95;25.07;94402.45;1710989;82;20992;-54
2022/06/23 11:23:27;;;;;;;1.07;0.98;;;;;;;27.04;26.30;94400.47;1685188;84;21039;-54
2022/06/23 11:26:03;;;;;;;1.35;1.15;;;;;;;27.44;26.29;94401.46;1719119;82;21463;-55
2022/06/23 11:28:55;;;;;;;3.52;1.35;;;;;;;27.65;27.21;94382.25;1713193;81;21033;-59
2022/06/23 11:31:50;;;;;;;4.08;1.60;;;;;;;27.80;28.02;94404.11;1680353;83;22009;-52
2022/06/23 11:34:53;;;;;;;1.85;1.27;;;;;;;27.67;29.03;94406.45;1716134;81;21042;-55
2022/06/23 11:37:50;;;;;;;3.83;1.32;;;;;;;28.15;29.55;94406.66;1718427;82;21144;-54
2022/06/23 11:40:47;;;;;;;1.80;1.07;;;;;;;28.69;28.61;94412.98;1692062;82;21492;-53
2022/06/23 11:43:27;;;;;;;3.52;1.00;;;;;;;29.15;25.77;94404.36;1716688;82;21021;-54
2022/06/23 11:46:24;;;;;;;1.10;0.80;;;;;;;29.51;25.60;94400.43;1700229;81;21510;-53
2022/06/23 11:48:57;;;;;;;1.25;0.90;;;;;;;29.81;24.31;94410.08;1714428;82;21050;-54
2022/06/23 11:51:41;;;;;;;1.40;1.10;;;;;;;29.93;23.65;94406.94;1708578;81;21514;-54
2022/06/23 11:54:25;;;;;;;1.77;1.20;;;;;;;29.90;24.87;94403.84;1692664;81;21253;-57
2022/06/23 11:57:26;;;;;;;2.90;1.10;;;;;;;30.23;25.22;94388.86;1712239;81;21047;-53
2022/06/23 12:00:15;;;;;;;2.25;0.82;;;;;;;30.70;23.67;94394.94;1719627;82;21070;-55
2022/06/23 12:03:23;;;;;;;1.92;1.10;;;;;;;31.35;22.65;94400.87;1712219;82;21081;-55
2022/06/23 12:06:16;;;;;;;1.17;0.90;;;;;;;31.47;21.77;94401.83;1716175;81;21964;-55
2022/06/23 12:08:49;;;;;;;0.80;0.80;;;;;;;31.54;21.90;94401.70;1719564;81;21098;-57
2022/06/23 12:11:16;;;;;;;8.73;6.35;;;;;;;31.64;23.17;94406.74;1714831;81;21002;-57
2022/06/23 12:13:46;;;;;;;4.22;1.87;;;;;;;31.69;22.78;94404.34;1711704;81;21140;-56
2022/06/23 12:16:14;;;;;;;2.00;1.12;;;;;;;31.53;23.53;94398.78;1725226;81;21066;-55
2022/06/23 12:19:01;;;;;;;2.12;0.95;;;;;;;31.50;22.88;94402.82;1719639;82;21103;-58
2022/06/23 12:21:52;;;;;;;6.15;0.93;;;;;;;31.53;24.47;94405.13;1721573;82;21146;-53
2022/06/23 12:24:43;;;;;;;2.87;1.07;;;;;;;31.68;23.19;94407.11;1719001;83;21090;-50
2022/06/23 12:27:31;;;;;;;1.47;0.70;;;;;;;32.08;22.93;94407.35;1699291;81;21043;-56
2022/06/23 12:30:10;;;;;;;1.12;0.93;;;;;;;32.33;21.88;94397.88;1715543;81;21002;-54
2022/06/23 12:33:12;;;;;;;2.05;1.10;;;;;;;32.47;23.04;94398.95;1714008;82;21120;-53
2022/06/23 12:35:54;;;;;;;6.58;0.98;;;;;;;32.85;21.96;94416.05;1705499;81;22584;-53
2022/06/23 12:38:31;;;;;;;0.90;0.90;;;;;;;32.88;22.42;94415.60;1713238;81;21034;-52
2022/06/23 12:41:10;;;;;;;1.98;1.25;;;;;;;32.99;21.87;94411.38;1702662;83;21081;-52
2022/06/23 12:44:01;;;;;;;1.85;1.10;;;;;;;32.96;22.62;94421.87;1726996;81;21122;-52
2022/06/23 12:47:13;;;;;;;4.03;1.00;;;;;;;33.07;22.23;94409.10;1721525;81;21134;-53
2022/06/23 12:50:08;;;;;;;1.02;0.90;;;;;;;33.19;21.94;94409.98;1720160;81;21127;-52
2022/06/23 12:52:51;;;;;;;2.05;0.88;;;;;;;33.36;21.62;94405.53;1714789;82;22279;-52
2022/06/23 12:56:06;;;;;;;5.12;0.85;;;;;;;33.50;21.38;94409.40;1718483;81;21039;-52
2022/06/23 12:58:43;;;;;;;0.53;0.50;;;;;;;33.56;20.79;94396.97;1642328;85;21172;-53